sensor_id;sensor_type;location;lat;lon;timestamp;P1;durP1;ratioP1;P2;durP2;ratioP2
59300;SDS011;45073;52.740;6.784;2023-05-10T00:01:55;10.60;;;6.75;;
59300;SDS011;45073;52.740;6.784;2023-05-10T00:04:21;11.30;;;7.13;;
59300;SDS011;45073;52.740;6.784;2023-05-10T00:06:46;11.18;;;7.57;;
59300;SDS011;45073;52.740;6.784;2023-05-10T00:09:12;14.20;;;12.80;;
59300;SDS011;45073;52.740;6.784;2023-05-10T00:11:39;10.65;;;7.00;;
59300;SDS011;45073;52.740;6.784;2023-05-10T00:14:05;10.77;;;6.60;;
59300;SDS011;45073;52.740;6.784;2023-05-10T00:16:30;11.40;;;8.45;;
59300;SDS011;45073;52.740;6.784;2023-05-10T00:18:56;11.82;;;10.63;;
59300;SDS011;45073;52.740;6.784;2023-05-10T00:21:21;10.60;;;6.50;;
59300;SDS011;45073;52.740;6.784;2023-05-10T00:23:47;12.55;;;11.25;;
59300;SDS011;45073;52.740;6.784;2023-05-10T00:26:13;9.45;;;5.60;;
59300;SDS011;45073;52.740;6.784;2023-05-10T00:28:38;9.00;;;5.50;;
59300;SDS011;45073;52.740;6.784;2023-05-10T00:31:04;10.05;;;6.32;;
59300;SDS011;45073;52.740;6.784;2023-05-10T00:33:30;11.63;;;10.23;;
59300;SDS011;45073;52.740;6.784;2023-05-10T00:35:55;10.50;;;5.80;;
59300;SDS011;45073;52.740;6.784;2023-05-10T00:38:21;9.85;;;5.70;;
59300;SDS011;45073;52.740;6.784;2023-05-10T00:40:47;10.88;;;6.32;;
59300;SDS011;45073;52.740;6.784;2023-05-10T00:43:12;10.55;;;7.10;;
59300;SDS011;45073;52.740;6.784;2023-05-10T00:45:38;13.18;;;11.88;;
59300;SDS011;45073;52.740;6.784;2023-05-10T00:48:05;11.98;;;6.70;;
59300;SDS011;45073;52.740;6.784;2023-05-10T00:50:31;13.88;;;7.40;;
59300;SDS011;45073;52.740;6.784;2023-05-10T00:52:58;16.67;;;15.07;;
59300;SDS011;45073;52.740;6.784;2023-05-10T00:55:25;11.57;;;8.30;;
59300;SDS011;45073;52.740;6.784;2023-05-10T00:57:51;13.98;;;8.55;;
59300;SDS011;45073;52.740;6.784;2023-05-10T01:00:18;12.77;;;7.95;;
59300;SDS011;45073;52.740;6.784;2023-05-10T01:02:44;13.50;;;8.43;;
59300;SDS011;45073;52.740;6.784;2023-05-10T01:05:11;17.67;;;16.02;;
59300;SDS011;45073;52.740;6.784;2023-05-10T01:07:37;13.32;;;8.52;;
59300;SDS011;45073;52.740;6.784;2023-05-10T01:10:02;13.65;;;9.05;;
59300;SDS011;45073;52.740;6.784;2023-05-10T01:12:29;13.02;;;8.35;;
59300;SDS011;45073;52.740;6.784;2023-05-10T01:14:55;18.10;;;16.23;;
59300;SDS011;45073;52.740;6.784;2023-05-10T01:17:21;19.52;;;17.63;;
59300;SDS011;45073;52.740;6.784;2023-05-10T01:19:47;14.10;;;8.63;;
59300;SDS011;45073;52.740;6.784;2023-05-10T01:22:33;14.30;;;8.18;;
59300;SDS011;45073;52.740;6.784;2023-05-10T01:31:28;18.45;;;16.70;;
59300;SDS011;45073;52.740;6.784;2023-05-10T01:33:57;13.00;;;8.15;;
59300;SDS011;45073;52.740;6.784;2023-05-10T01:36:35;13.55;;;7.60;;
59300;SDS011;45073;52.740;6.784;2023-05-10T01:39:15;14.60;;;8.00;;
59300;SDS011;45073;52.740;6.784;2023-05-10T01:41:48;17.83;;;16.02;;
59300;SDS011;45073;52.740;6.784;2023-05-10T01:47:07;13.50;;;7.10;;
59300;SDS011;45073;52.740;6.784;2023-05-10T01:49:36;13.45;;;7.53;;
59300;SDS011;45073;52.740;6.784;2023-05-10T01:52:15;13.25;;;8.57;;
59300;SDS011;45073;52.740;6.784;2023-05-10T01:54:53;12.93;;;7.57;;
59300;SDS011;45073;52.740;6.784;2023-05-10T01:57:24;12.90;;;8.38;;
59300;SDS011;45073;52.740;6.784;2023-05-10T01:59:52;16.55;;;14.85;;
59300;SDS011;45073;52.740;6.784;2023-05-10T02:02:20;15.82;;;14.02;;
59300;SDS011;45073;52.740;6.784;2023-05-10T02:04:47;14.95;;;8.20;;
59300;SDS011;45073;52.740;6.784;2023-05-10T02:07:15;11.88;;;7.00;;
59300;SDS011;45073;52.740;6.784;2023-05-10T02:09:43;12.77;;;7.15;;
59300;SDS011;45073;52.740;6.784;2023-05-10T02:12:12;12.18;;;6.53;;
59300;SDS011;45073;52.740;6.784;2023-05-10T02:14:39;13.82;;;8.60;;
59300;SDS011;45073;52.740;6.784;2023-05-10T02:17:07;17.23;;;15.25;;
59300;SDS011;45073;52.740;6.784;2023-05-10T02:19:34;14.07;;;8.50;;
59300;SDS011;45073;52.740;6.784;2023-05-10T02:22:02;11.60;;;5.88;;
59300;SDS011;45073;52.740;6.784;2023-05-10T02:24:28;14.63;;;12.75;;
59300;SDS011;45073;52.740;6.784;2023-05-10T02:26:55;13.10;;;6.30;;
59300;SDS011;45073;52.740;6.784;2023-05-10T02:29:23;11.02;;;5.90;;
59300;SDS011;45073;52.740;6.784;2023-05-10T02:31:54;11.13;;;6.00;;
59300;SDS011;45073;52.740;6.784;2023-05-10T02:34:24;10.35;;;5.25;;
59300;SDS011;45073;52.740;6.784;2023-05-10T02:36:52;10.30;;;5.68;;
59300;SDS011;45073;52.740;6.784;2023-05-10T02:39:19;9.93;;;5.90;;
59300;SDS011;45073;52.740;6.784;2023-05-10T02:41:46;9.80;;;5.88;;
59300;SDS011;45073;52.740;6.784;2023-05-10T02:44:14;12.35;;;10.27;;
59300;SDS011;45073;52.740;6.784;2023-05-10T02:46:42;12.13;;;10.50;;
59300;SDS011;45073;52.740;6.784;2023-05-10T02:49:08;13.00;;;5.10;;
59300;SDS011;45073;52.740;6.784;2023-05-10T02:51:34;10.15;;;5.13;;
59300;SDS011;45073;52.740;6.784;2023-05-10T02:54:04;10.15;;;5.28;;
59300;SDS011;45073;52.740;6.784;2023-05-10T02:56:35;11.52;;;5.68;;
59300;SDS011;45073;52.740;6.784;2023-05-10T02:59:05;10.30;;;6.05;;
59300;SDS011;45073;52.740;6.784;2023-05-10T03:01:31;9.95;;;5.55;;
59300;SDS011;45073;52.740;6.784;2023-05-10T03:03:57;11.82;;;6.20;;
59300;SDS011;45073;52.740;6.784;2023-05-10T03:06:22;10.85;;;5.80;;
59300;SDS011;45073;52.740;6.784;2023-05-10T03:08:48;10.88;;;5.50;;
59300;SDS011;45073;52.740;6.784;2023-05-10T03:13:49;11.00;;;6.85;;
59300;SDS011;45073;52.740;6.784;2023-05-10T03:16:32;10.38;;;5.43;;
59300;SDS011;45073;52.740;6.784;2023-05-10T03:19:06;9.95;;;5.35;;
59300;SDS011;45073;52.740;6.784;2023-05-10T03:21:36;9.32;;;5.53;;
59300;SDS011;45073;52.740;6.784;2023-05-10T03:24:06;10.65;;;6.10;;
59300;SDS011;45073;52.740;6.784;2023-05-10T03:26:33;10.13;;;4.57;;
59300;SDS011;45073;52.740;6.784;2023-05-10T03:29:01;9.73;;;5.00;;
59300;SDS011;45073;52.740;6.784;2023-05-10T03:31:28;12.07;;;9.63;;
59300;SDS011;45073;52.740;6.784;2023-05-10T03:33:53;11.93;;;9.60;;
59300;SDS011;45073;52.740;6.784;2023-05-10T03:36:19;10.10;;;6.18;;
59300;SDS011;45073;52.740;6.784;2023-05-10T03:38:45;9.40;;;4.63;;
59300;SDS011;45073;52.740;6.784;2023-05-10T03:41:10;9.48;;;5.20;;
59300;SDS011;45073;52.740;6.784;2023-05-10T03:43:36;9.90;;;4.55;;
59300;SDS011;45073;52.740;6.784;2023-05-10T03:46:05;9.75;;;4.68;;
59300;SDS011;45073;52.740;6.784;2023-05-10T03:48:31;9.88;;;6.47;;
59300;SDS011;45073;52.740;6.784;2023-05-10T03:50:58;10.52;;;5.30;;
59300;SDS011;45073;52.740;6.784;2023-05-10T03:53:23;11.40;;;4.85;;
59300;SDS011;45073;52.740;6.784;2023-05-10T03:55:49;12.52;;;9.93;;
59300;SDS011;45073;52.740;6.784;2023-05-10T03:58:15;12.25;;;10.00;;
59300;SDS011;45073;52.740;6.784;2023-05-10T04:00:40;9.60;;;5.35;;
59300;SDS011;45073;52.740;6.784;2023-05-10T04:03:09;10.25;;;4.80;;
59300;SDS011;45073;52.740;6.784;2023-05-10T04:05:36;10.95;;;5.30;;
59300;SDS011;45073;52.740;6.784;2023-05-10T04:08:02;9.27;;;5.22;;
59300;SDS011;45073;52.740;6.784;2023-05-10T04:10:27;11.13;;;5.82;;
59300;SDS011;45073;52.740;6.784;2023-05-10T04:12:53;10.52;;;5.68;;
59300;SDS011;45073;52.740;6.784;2023-05-10T04:15:19;11.57;;;6.20;;
59300;SDS011;45073;52.740;6.784;2023-05-10T04:17:44;11.35;;;6.50;;
59300;SDS011;45073;52.740;6.784;2023-05-10T04:20:10;11.27;;;6.57;;
59300;SDS011;45073;52.740;6.784;2023-05-10T04:22:36;10.43;;;5.60;;
59300;SDS011;45073;52.740;6.784;2023-05-10T04:25:02;13.45;;;5.97;;
59300;SDS011;45073;52.740;6.784;2023-05-10T04:27:28;12.50;;;7.45;;
59300;SDS011;45073;52.740;6.784;2023-05-10T04:29:53;12.70;;;6.72;;
59300;SDS011;45073;52.740;6.784;2023-05-10T04:32:19;11.07;;;5.68;;
59300;SDS011;45073;52.740;6.784;2023-05-10T04:34:45;15.82;;;12.45;;
59300;SDS011;45073;52.740;6.784;2023-05-10T04:37:11;11.70;;;5.95;;
59300;SDS011;45073;52.740;6.784;2023-05-10T04:39:36;11.38;;;5.72;;
59300;SDS011;45073;52.740;6.784;2023-05-10T04:42:02;12.93;;;6.05;;
59300;SDS011;45073;52.740;6.784;2023-05-10T04:44:28;14.05;;;11.88;;
59300;SDS011;45073;52.740;6.784;2023-05-10T04:46:54;11.48;;;6.68;;
59300;SDS011;45073;52.740;6.784;2023-05-10T04:49:20;13.60;;;6.13;;
59300;SDS011;45073;52.740;6.784;2023-05-10T04:51:46;11.75;;;6.45;;
59300;SDS011;45073;52.740;6.784;2023-05-10T04:54:12;11.60;;;6.55;;
59300;SDS011;45073;52.740;6.784;2023-05-10T04:56:37;13.95;;;6.32;;
59300;SDS011;45073;52.740;6.784;2023-05-10T04:59:03;13.60;;;7.40;;
59300;SDS011;45073;52.740;6.784;2023-05-10T05:01:29;11.43;;;6.15;;
59300;SDS011;45073;52.740;6.784;2023-05-10T05:03:54;12.80;;;6.40;;
59300;SDS011;45073;52.740;6.784;2023-05-10T05:06:20;13.63;;;11.77;;
59300;SDS011;45073;52.740;6.784;2023-05-10T05:08:46;9.60;;;4.90;;
59300;SDS011;45073;52.740;6.784;2023-05-10T05:11:11;12.32;;;4.80;;
59300;SDS011;45073;52.740;6.784;2023-05-10T05:13:37;12.93;;;5.82;;
59300;SDS011;45073;52.740;6.784;2023-05-10T05:16:03;11.02;;;5.30;;
59300;SDS011;45073;52.740;6.784;2023-05-10T05:18:30;10.20;;;4.93;;
59300;SDS011;45073;52.740;6.784;2023-05-10T05:20:55;9.00;;;4.47;;
59300;SDS011;45073;52.740;6.784;2023-05-10T05:23:21;12.35;;;4.85;;
59300;SDS011;45073;52.740;6.784;2023-05-10T05:25:49;11.43;;;6.13;;
59300;SDS011;45073;52.740;6.784;2023-05-10T05:28:17;14.57;;;10.52;;
59300;SDS011;45073;52.740;6.784;2023-05-10T05:30:43;13.13;;;10.40;;
59300;SDS011;45073;52.740;6.784;2023-05-10T05:33:09;12.13;;;5.32;;
59300;SDS011;45073;52.740;6.784;2023-05-10T05:35:34;11.13;;;5.07;;
59300;SDS011;45073;52.740;6.784;2023-05-10T05:38:00;11.38;;;5.00;;
59300;SDS011;45073;52.740;6.784;2023-05-10T05:40:26;10.55;;;4.32;;
59300;SDS011;45073;52.740;6.784;2023-05-10T05:42:51;11.25;;;5.05;;
59300;SDS011;45073;52.740;6.784;2023-05-10T05:45:17;11.27;;;4.70;;
59300;SDS011;45073;52.740;6.784;2023-05-10T05:47:42;9.90;;;4.88;;
59300;SDS011;45073;52.740;6.784;2023-05-10T05:50:08;15.77;;;4.72;;
59300;SDS011;45073;52.740;6.784;2023-05-10T05:52:34;11.15;;;5.35;;
59300;SDS011;45073;52.740;6.784;2023-05-10T05:55:00;12.98;;;4.82;;
59300;SDS011;45073;52.740;6.784;2023-05-10T05:57:26;12.05;;;5.60;;
59300;SDS011;45073;52.740;6.784;2023-05-10T05:59:52;11.55;;;5.63;;
59300;SDS011;45073;52.740;6.784;2023-05-10T06:02:17;11.85;;;4.55;;
59300;SDS011;45073;52.740;6.784;2023-05-10T06:04:43;11.02;;;5.03;;
59300;SDS011;45073;52.740;6.784;2023-05-10T06:07:09;10.43;;;5.15;;
59300;SDS011;45073;52.740;6.784;2023-05-10T06:09:34;11.75;;;4.72;;
59300;SDS011;45073;52.740;6.784;2023-05-10T06:12:00;16.08;;;10.63;;
59300;SDS011;45073;52.740;6.784;2023-05-10T06:14:26;10.68;;;5.07;;
59300;SDS011;45073;52.740;6.784;2023-05-10T06:16:52;11.90;;;5.60;;
59300;SDS011;45073;52.740;6.784;2023-05-10T06:19:17;13.45;;;6.25;;
59300;SDS011;45073;52.740;6.784;2023-05-10T06:21:43;12.52;;;5.25;;
59300;SDS011;45073;52.740;6.784;2023-05-10T06:24:09;12.13;;;6.18;;
59300;SDS011;45073;52.740;6.784;2023-05-10T06:26:34;13.00;;;6.70;;
59300;SDS011;45073;52.740;6.784;2023-05-10T06:29:00;15.35;;;11.65;;
59300;SDS011;45073;52.740;6.784;2023-05-10T06:31:26;11.13;;;5.30;;
59300;SDS011;45073;52.740;6.784;2023-05-10T06:33:52;15.52;;;6.15;;
59300;SDS011;45073;52.740;6.784;2023-05-10T06:36:17;14.02;;;5.68;;
59300;SDS011;45073;52.740;6.784;2023-05-10T06:38:43;11.68;;;4.72;;
59300;SDS011;45073;52.740;6.784;2023-05-10T06:41:09;16.85;;;11.60;;
59300;SDS011;45073;52.740;6.784;2023-05-10T06:43:34;11.50;;;5.30;;
59300;SDS011;45073;52.740;6.784;2023-05-10T06:46:00;9.85;;;4.43;;
59300;SDS011;45073;52.740;6.784;2023-05-10T06:48:26;10.50;;;4.47;;
59300;SDS011;45073;52.740;6.784;2023-05-10T06:50:51;11.60;;;4.93;;
59300;SDS011;45073;52.740;6.784;2023-05-10T06:53:17;13.02;;;9.75;;
59300;SDS011;45073;52.740;6.784;2023-05-10T06:55:42;10.68;;;4.63;;
59300;SDS011;45073;52.740;6.784;2023-05-10T06:58:08;14.70;;;5.03;;
59300;SDS011;45073;52.740;6.784;2023-05-10T07:00:34;10.60;;;5.25;;
59300;SDS011;45073;52.740;6.784;2023-05-10T07:02:59;10.55;;;4.40;;
59300;SDS011;45073;52.740;6.784;2023-05-10T07:05:25;11.93;;;7.88;;
59300;SDS011;45073;52.740;6.784;2023-05-10T07:07:52;10.25;;;5.15;;
59300;SDS011;45073;52.740;6.784;2023-05-10T07:10:18;11.70;;;4.57;;
59300;SDS011;45073;52.740;6.784;2023-05-10T07:12:43;11.77;;;5.20;;
59300;SDS011;45073;52.740;6.784;2023-05-10T07:15:09;10.48;;;4.88;;
59300;SDS011;45073;52.740;6.784;2023-05-10T07:17:35;12.73;;;8.18;;
59300;SDS011;45073;52.740;6.784;2023-05-10T07:20:01;10.13;;;4.45;;
59300;SDS011;45073;52.740;6.784;2023-05-10T07:22:26;10.35;;;4.07;;
59300;SDS011;45073;52.740;6.784;2023-05-10T07:24:52;10.20;;;4.60;;
59300;SDS011;45073;52.740;6.784;2023-05-10T07:27:18;10.85;;;6.82;;
59300;SDS011;45073;52.740;6.784;2023-05-10T07:29:43;9.68;;;3.58;;
59300;SDS011;45073;52.740;6.784;2023-05-10T07:32:09;11.27;;;3.30;;
59300;SDS011;45073;52.740;6.784;2023-05-10T07:34:34;11.15;;;7.13;;
59300;SDS011;45073;52.740;6.784;2023-05-10T07:37:00;10.07;;;4.20;;
59300;SDS011;45073;52.740;6.784;2023-05-10T07:39:26;10.82;;;3.90;;
59300;SDS011;45073;52.740;6.784;2023-05-10T07:41:52;10.75;;;6.97;;
59300;SDS011;45073;52.740;6.784;2023-05-10T07:44:18;11.98;;;6.65;;
59300;SDS011;45073;52.740;6.784;2023-05-10T07:46:45;8.57;;;3.90;;
59300;SDS011;45073;52.740;6.784;2023-05-10T07:49:11;9.45;;;3.53;;
59300;SDS011;45073;52.740;6.784;2023-05-10T07:51:37;9.77;;;4.07;;
59300;SDS011;45073;52.740;6.784;2023-05-10T07:54:02;9.90;;;3.70;;
59300;SDS011;45073;52.740;6.784;2023-05-10T07:56:29;9.73;;;6.05;;
59300;SDS011;45073;52.740;6.784;2023-05-10T07:58:56;8.45;;;3.45;;
59300;SDS011;45073;52.740;6.784;2023-05-10T08:01:23;9.20;;;3.65;;
59300;SDS011;45073;52.740;6.784;2023-05-10T08:03:49;8.95;;;3.13;;
59300;SDS011;45073;52.740;6.784;2023-05-10T08:06:16;12.00;;;7.38;;
59300;SDS011;45073;52.740;6.784;2023-05-10T08:08:43;12.43;;;6.97;;
59300;SDS011;45073;52.740;6.784;2023-05-10T08:11:14;9.73;;;3.42;;
59300;SDS011;45073;52.740;6.784;2023-05-10T08:13:43;9.95;;;3.17;;
59300;SDS011;45073;52.740;6.784;2023-05-10T08:16:09;8.90;;;3.63;;
59300;SDS011;45073;52.740;6.784;2023-05-10T08:18:35;6.85;;;2.92;;
59300;SDS011;45073;52.740;6.784;2023-05-10T08:21:01;10.82;;;5.63;;
59300;SDS011;45073;52.740;6.784;2023-05-10T08:23:27;9.98;;;5.78;;
59300;SDS011;45073;52.740;6.784;2023-05-10T08:25:53;9.45;;;3.47;;
59300;SDS011;45073;52.740;6.784;2023-05-10T08:28:18;8.30;;;2.88;;
59300;SDS011;45073;52.740;6.784;2023-05-10T08:30:44;10.23;;;3.72;;
59300;SDS011;45073;52.740;6.784;2023-05-10T08:33:09;9.13;;;3.83;;
59300;SDS011;45073;52.740;6.784;2023-05-10T08:35:35;8.55;;;3.25;;
59300;SDS011;45073;52.740;6.784;2023-05-10T08:38:01;9.93;;;5.07;;
59300;SDS011;45073;52.740;6.784;2023-05-10T08:40:26;9.48;;;5.15;;
59300;SDS011;45073;52.740;6.784;2023-05-10T08:42:56;9.98;;;5.30;;
59300;SDS011;45073;52.740;6.784;2023-05-10T08:45:27;7.60;;;2.60;;
59300;SDS011;45073;52.740;6.784;2023-05-10T08:47:59;6.72;;;2.35;;
59300;SDS011;45073;52.740;6.784;2023-05-10T08:50:27;7.85;;;2.38;;
59300;SDS011;45073;52.740;6.784;2023-05-10T08:52:55;7.30;;;2.17;;
59300;SDS011;45073;52.740;6.784;2023-05-10T08:55:24;8.20;;;3.40;;
59300;SDS011;45073;52.740;6.784;2023-05-10T08:57:49;7.68;;;3.53;;
59300;SDS011;45073;52.740;6.784;2023-05-10T09:00:15;6.32;;;2.33;;
59300;SDS011;45073;52.740;6.784;2023-05-10T09:02:43;8.27;;;4.30;;
59300;SDS011;45073;52.740;6.784;2023-05-10T09:05:10;6.68;;;2.13;;
59300;SDS011;45073;52.740;6.784;2023-05-10T09:07:36;8.98;;;4.20;;
59300;SDS011;45073;52.740;6.784;2023-05-10T09:10:02;9.45;;;3.70;;
59300;SDS011;45073;52.740;6.784;2023-05-10T09:12:29;6.15;;;2.30;;
59300;SDS011;45073;52.740;6.784;2023-05-10T09:14:55;7.88;;;2.78;;
59300;SDS011;45073;52.740;6.784;2023-05-10T09:17:23;8.85;;;2.95;;
59300;SDS011;45073;52.740;6.784;2023-05-10T09:19:49;7.88;;;2.72;;
59300;SDS011;45073;52.740;6.784;2023-05-10T09:22:21;9.15;;;4.40;;
59300;SDS011;45073;52.740;6.784;2023-05-10T09:24:48;8.10;;;4.10;;
59300;SDS011;45073;52.740;6.784;2023-05-10T09:27:27;9.15;;;2.97;;
59300;SDS011;45073;52.740;6.784;2023-05-10T09:29:53;7.97;;;2.88;;
59300;SDS011;45073;52.740;6.784;2023-05-10T09:32:20;8.45;;;3.05;;
59300;SDS011;45073;52.740;6.784;2023-05-10T09:34:45;7.40;;;3.90;;
59300;SDS011;45073;52.740;6.784;2023-05-10T09:37:15;8.23;;;4.53;;
59300;SDS011;45073;52.740;6.784;2023-05-10T09:39:40;7.45;;;4.15;;
59300;SDS011;45073;52.740;6.784;2023-05-10T09:42:09;8.88;;;2.88;;
59300;SDS011;45073;52.740;6.784;2023-05-10T09:44:35;7.70;;;3.20;;
59300;SDS011;45073;52.740;6.784;2023-05-10T09:47:02;8.55;;;4.70;;
59300;SDS011;45073;52.740;6.784;2023-05-10T09:49:28;8.75;;;4.60;;
59300;SDS011;45073;52.740;6.784;2023-05-10T09:52:03;7.95;;;4.43;;
59300;SDS011;45073;52.740;6.784;2023-05-10T09:54:31;7.97;;;2.92;;
59300;SDS011;45073;52.740;6.784;2023-05-10T09:56:56;8.02;;;4.15;;
59300;SDS011;45073;52.740;6.784;2023-05-10T09:59:23;8.98;;;5.47;;
59300;SDS011;45073;52.740;6.784;2023-05-10T10:01:51;10.05;;;4.85;;
59300;SDS011;45073;52.740;6.784;2023-05-10T10:04:17;8.45;;;4.00;;
59300;SDS011;45073;52.740;6.784;2023-05-10T10:06:46;9.55;;;5.97;;
59300;SDS011;45073;52.740;6.784;2023-05-10T10:09:22;9.27;;;3.75;;
59300;SDS011;45073;52.740;6.784;2023-05-10T10:11:49;9.13;;;3.88;;
59300;SDS011;45073;52.740;6.784;2023-05-10T10:14:16;10.52;;;6.53;;
59300;SDS011;45073;52.740;6.784;2023-05-10T10:16:43;9.65;;;4.50;;
59300;SDS011;45073;52.740;6.784;2023-05-10T10:19:09;8.85;;;4.45;;
59300;SDS011;45073;52.740;6.784;2023-05-10T10:21:35;9.60;;;4.50;;
59300;SDS011;45073;52.740;6.784;2023-05-10T10:24:01;10.05;;;6.30;;
59300;SDS011;45073;52.740;6.784;2023-05-10T10:26:26;9.18;;;5.93;;
59300;SDS011;45073;52.740;6.784;2023-05-10T10:34:07;9.60;;;5.80;;
59300;SDS011;45073;52.740;6.784;2023-05-10T10:36:47;9.98;;;6.05;;
59300;SDS011;45073;52.740;6.784;2023-05-10T10:39:13;11.70;;;3.92;;
59300;SDS011;45073;52.740;6.784;2023-05-10T10:41:40;10.43;;;6.88;;
59300;SDS011;45073;52.740;6.784;2023-05-10T10:47:07;10.63;;;4.38;;
59300;SDS011;45073;52.740;6.784;2023-05-10T10:50:05;8.70;;;4.00;;
59300;SDS011;45073;52.740;6.784;2023-05-10T10:52:36;10.98;;;6.57;;
59300;SDS011;45073;52.740;6.784;2023-05-10T10:55:05;9.98;;;6.55;;
59300;SDS011;45073;52.740;6.784;2023-05-10T10:57:47;9.38;;;4.63;;
59300;SDS011;45073;52.740;6.784;2023-05-10T11:00:20;10.85;;;5.55;;
59300;SDS011;45073;52.740;6.784;2023-05-10T11:02:47;10.93;;;6.22;;
59300;SDS011;45073;52.740;6.784;2023-05-10T11:08:06;10.20;;;5.88;;
59300;SDS011;45073;52.740;6.784;2023-05-10T11:10:38;11.13;;;5.47;;
59300;SDS011;45073;52.740;6.784;2023-05-10T11:13:06;12.82;;;8.25;;
59300;SDS011;45073;52.740;6.784;2023-05-10T11:15:34;11.77;;;8.63;;
59300;SDS011;45073;52.740;6.784;2023-05-10T11:18:20;9.25;;;5.22;;
59300;SDS011;45073;52.740;6.784;2023-05-10T11:20:59;10.13;;;7.18;;
59300;SDS011;45073;52.740;6.784;2023-05-10T11:26:07;11.90;;;8.15;;
59300;SDS011;45073;52.740;6.784;2023-05-10T11:28:41;10.93;;;8.20;;
59300;SDS011;45073;52.740;6.784;2023-05-10T11:31:10;11.00;;;5.57;;
59300;SDS011;45073;52.740;6.784;2023-05-10T11:33:51;11.00;;;8.27;;
59300;SDS011;45073;52.740;6.784;2023-05-10T11:36:19;10.40;;;5.68;;
59300;SDS011;45073;52.740;6.784;2023-05-10T11:38:46;10.00;;;5.13;;
59300;SDS011;45073;52.740;6.784;2023-05-10T11:41:12;10.82;;;8.32;;
59300;SDS011;45073;52.740;6.784;2023-05-10T11:43:39;11.73;;;8.57;;
59300;SDS011;45073;52.740;6.784;2023-05-10T11:46:06;13.52;;;9.95;;
59300;SDS011;45073;52.740;6.784;2023-05-10T11:48:36;11.13;;;8.65;;
59300;SDS011;45073;52.740;6.784;2023-05-10T11:51:03;11.52;;;8.77;;
59300;SDS011;45073;52.740;6.784;2023-05-10T11:53:31;10.50;;;5.78;;
59300;SDS011;45073;52.740;6.784;2023-05-10T11:56:06;10.40;;;7.53;;
59300;SDS011;45073;52.740;6.784;2023-05-10T11:58:33;10.38;;;7.53;;
59300;SDS011;45073;52.740;6.784;2023-05-10T12:01:00;10.73;;;6.18;;
59300;SDS011;45073;52.740;6.784;2023-05-10T12:03:27;10.40;;;7.47;;
59300;SDS011;45073;52.740;6.784;2023-05-10T12:05:54;11.80;;;8.20;;
59300;SDS011;45073;52.740;6.784;2023-05-10T12:08:21;10.60;;;8.43;;
59300;SDS011;45073;52.740;6.784;2023-05-10T12:10:48;12.50;;;8.50;;
59300;SDS011;45073;52.740;6.784;2023-05-10T12:13:14;12.48;;;8.65;;
59300;SDS011;45073;52.740;6.784;2023-05-10T12:15:40;12.55;;;5.32;;
59300;SDS011;45073;52.740;6.784;2023-05-10T12:18:10;11.75;;;7.80;;
59300;SDS011;45073;52.740;6.784;2023-05-10T12:20:37;11.75;;;7.38;;
59300;SDS011;45073;52.740;6.784;2023-05-10T12:23:03;9.85;;;5.13;;
59300;SDS011;45073;52.740;6.784;2023-05-10T12:25:31;10.27;;;6.22;;
59300;SDS011;45073;52.740;6.784;2023-05-10T12:27:59;9.88;;;5.30;;
59300;SDS011;45073;52.740;6.784;2023-05-10T12:30:29;11.52;;;8.43;;
59300;SDS011;45073;52.740;6.784;2023-05-10T12:33:00;11.73;;;8.77;;
59300;SDS011;45073;52.740;6.784;2023-05-10T12:35:31;10.80;;;5.50;;
59300;SDS011;45073;52.740;6.784;2023-05-10T12:37:57;11.70;;;8.32;;
59300;SDS011;45073;52.740;6.784;2023-05-10T12:40:23;12.68;;;8.63;;
59300;SDS011;45073;52.740;6.784;2023-05-10T12:42:48;11.80;;;8.70;;
59300;SDS011;45073;52.740;6.784;2023-05-10T12:45:14;12.02;;;6.57;;
59300;SDS011;45073;52.740;6.784;2023-05-10T12:47:42;12.48;;;9.57;;
59300;SDS011;45073;52.740;6.784;2023-05-10T12:50:07;11.15;;;6.35;;
59300;SDS011;45073;52.740;6.784;2023-05-10T12:52:33;13.00;;;9.60;;
59300;SDS011;45073;52.740;6.784;2023-05-10T12:54:59;13.38;;;9.35;;
59300;SDS011;45073;52.740;6.784;2023-05-10T12:57:25;13.02;;;10.00;;
59300;SDS011;45073;52.740;6.784;2023-05-10T12:59:52;12.20;;;6.82;;
59300;SDS011;45073;52.740;6.784;2023-05-10T13:02:19;12.27;;;9.73;;
59300;SDS011;45073;52.740;6.784;2023-05-10T13:04:46;12.73;;;8.57;;
59300;SDS011;45073;52.740;6.784;2023-05-10T13:07:12;12.52;;;6.18;;
59300;SDS011;45073;52.740;6.784;2023-05-10T13:09:37;13.40;;;9.13;;
59300;SDS011;45073;52.740;6.784;2023-05-10T13:12:03;11.63;;;9.50;;
59300;SDS011;45073;52.740;6.784;2023-05-10T13:14:29;13.10;;;10.32;;
59300;SDS011;45073;52.740;6.784;2023-05-10T13:16:55;9.73;;;6.40;;
59300;SDS011;45073;52.740;6.784;2023-05-10T13:19:21;10.30;;;4.22;;
59300;SDS011;45073;52.740;6.784;2023-05-10T13:21:46;10.20;;;4.40;;
59300;SDS011;45073;52.740;6.784;2023-05-10T13:24:12;9.75;;;4.95;;
59300;SDS011;45073;52.740;6.784;2023-05-10T13:26:39;8.52;;;4.70;;
59300;SDS011;45073;52.740;6.784;2023-05-10T13:29:05;6.75;;;2.90;;
59300;SDS011;45073;52.740;6.784;2023-05-10T13:31:31;9.93;;;5.13;;
59300;SDS011;45073;52.740;6.784;2023-05-10T13:33:57;8.40;;;3.90;;
59300;SDS011;45073;52.740;6.784;2023-05-10T13:36:22;8.45;;;3.40;;
59300;SDS011;45073;52.740;6.784;2023-05-10T13:38:48;6.38;;;2.58;;
59300;SDS011;45073;52.740;6.784;2023-05-10T13:41:13;9.07;;;3.47;;
59300;SDS011;45073;52.740;6.784;2023-05-10T13:43:39;9.57;;;5.40;;
59300;SDS011;45073;52.740;6.784;2023-05-10T13:46:05;11.27;;;7.50;;
59300;SDS011;45073;52.740;6.784;2023-05-10T13:48:30;12.10;;;7.65;;
59300;SDS011;45073;52.740;6.784;2023-05-10T13:50:56;13.82;;;5.75;;
59300;SDS011;45073;52.740;6.784;2023-05-10T13:53:22;12.00;;;8.00;;
59300;SDS011;45073;52.740;6.784;2023-05-10T13:55:47;14.45;;;6.78;;
59300;SDS011;45073;52.740;6.784;2023-05-10T13:58:13;11.52;;;7.22;;
59300;SDS011;45073;52.740;6.784;2023-05-10T14:00:39;10.27;;;4.63;;
59300;SDS011;45073;52.740;6.784;2023-05-10T14:03:05;10.00;;;6.57;;
59300;SDS011;45073;52.740;6.784;2023-05-10T14:05:31;9.63;;;6.43;;
59300;SDS011;45073;52.740;6.784;2023-05-10T14:07:57;12.82;;;7.88;;
59300;SDS011;45073;52.740;6.784;2023-05-10T14:10:23;12.35;;;8.05;;
59300;SDS011;45073;52.740;6.784;2023-05-10T14:12:49;14.70;;;9.85;;
59300;SDS011;45073;52.740;6.784;2023-05-10T14:15:15;14.05;;;9.95;;
59300;SDS011;45073;52.740;6.784;2023-05-10T14:17:41;13.80;;;7.60;;
59300;SDS011;45073;52.740;6.784;2023-05-10T14:20:07;12.93;;;8.75;;
59300;SDS011;45073;52.740;6.784;2023-05-10T14:22:33;11.20;;;6.63;;
59300;SDS011;45073;52.740;6.784;2023-05-10T14:24:59;12.23;;;6.63;;
59300;SDS011;45073;52.740;6.784;2023-05-10T14:27:25;11.73;;;6.68;;
59300;SDS011;45073;52.740;6.784;2023-05-10T14:29:51;11.98;;;7.15;;
59300;SDS011;45073;52.740;6.784;2023-05-10T14:32:18;10.55;;;6.63;;
59300;SDS011;45073;52.740;6.784;2023-05-10T14:34:43;11.23;;;6.88;;
59300;SDS011;45073;52.740;6.784;2023-05-10T14:37:12;12.55;;;6.97;;
59300;SDS011;45073;52.740;6.784;2023-05-10T14:39:38;9.23;;;5.93;;
59300;SDS011;45073;52.740;6.784;2023-05-10T14:42:04;10.00;;;5.97;;
59300;SDS011;45073;52.740;6.784;2023-05-10T14:44:30;11.10;;;6.72;;
59300;SDS011;45073;52.740;6.784;2023-05-10T14:46:56;11.18;;;7.00;;
59300;SDS011;45073;52.740;6.784;2023-05-10T14:49:22;13.07;;;7.20;;
59300;SDS011;45073;52.740;6.784;2023-05-10T14:51:50;11.40;;;6.35;;
59300;SDS011;45073;52.740;6.784;2023-05-10T14:54:16;11.57;;;7.13;;
59300;SDS011;45073;52.740;6.784;2023-05-10T14:56:42;10.77;;;7.68;;
59300;SDS011;45073;52.740;6.784;2023-05-10T14:59:07;11.45;;;7.88;;
59300;SDS011;45073;52.740;6.784;2023-05-10T15:01:33;12.10;;;7.60;;
59300;SDS011;45073;52.740;6.784;2023-05-10T15:04:02;11.13;;;7.07;;